Time;durP1;ratioP1;P1;durP2;ratioP2;P2;SDS_P1;SDS_P2;PMS_P1;PMS_P2;Temp;Humidity;BMP_temperature;BMP_pressure;BME280_temperature;BME280_humidity;BME280_pressure;Samples;Min_cycle;Max_cycle;Signal;HPM_P1;HPM_P2
2022/06/25 00:02:02;;;;;;;9.40;4.50;;;;;;;27.07;32.81;99399.97;5046434;28;20530;-70
2022/06/25 00:07:12;;;;;;;12.15;5.18;;;;;;;27.00;32.87;99411.13;5035574;28;20045;-70
2022/06/25 00:09:38;;;;;;;7.35;4.43;;;;;;;27.02;32.74;99408.13;5050042;28;20048;-69
2022/06/25 00:14:48;;;;;;;9.40;4.90;;;;;;;26.92;33.20;99408.13;5055795;28;20490;-69
2022/06/25 00:17:14;;;;;;;10.50;4.60;;;;;;;26.95;32.95;99421.22;5069599;28;20041;-72
2022/06/25 00:19:40;;;;;;;12.98;4.75;;;;;;;27.07;32.62;99416.31;5053188;28;20089;-69
2022/06/25 00:22:05;;;;;;;9.20;4.40;;;;;;;27.04;32.51;99425.03;5036704;28;20090;-69
2022/06/25 00:24:31;;;;;;;13.32;5.10;;;;;;;26.92;32.83;99417.13;5069645;28;20042;-69
2022/06/25 00:26:57;;;;;;;8.30;4.78;;;;;;;26.94;32.73;99425.84;5020117;28;20193;-70
2022/06/25 00:29:23;;;;;;;15.80;4.82;;;;;;;26.91;33.12;99422.84;5020348;28;20397;-70
2022/06/25 00:31:48;;;;;;;7.00;4.15;;;;;;;26.88;32.77;99424.19;5052580;28;20553;-69
2022/06/25 00:34:15;;;;;;;9.85;4.85;;;;;;;26.85;32.98;99432.09;5069725;28;20109;-70
2022/06/25 00:36:43;;;;;;;11.93;5.53;;;;;;;26.87;33.10;99430.75;5036166;28;20129;-69
2022/06/25 00:39:09;;;;;;;9.43;4.50;;;;;;;26.88;33.00;99437.81;5069523;28;20045;-69
2022/06/25 00:41:35;;;;;;;15.15;6.68;;;;;;;26.82;33.25;99444.34;5052764;28;20055;-69
2022/06/25 00:44:07;;;;;;;11.40;4.93;;;;;;;27.04;32.91;99442.22;5069727;28;20059;-69
2022/06/25 00:46:32;;;;;;;8.43;4.38;;;;;;;26.85;33.20;99449.25;5069670;28;20040;-69
2022/06/25 00:48:58;;;;;;;11.52;5.10;;;;;;;26.83;33.14;99443.25;5020113;28;20044;-73
2022/06/25 00:51:27;;;;;;;8.60;4.82;;;;;;;26.95;33.04;99435.66;5019967;28;20131;-71
2022/06/25 00:53:56;;;;;;;11.35;4.60;;;;;;;27.00;33.14;99448.50;5053029;28;20094;-69
2022/06/25 00:56:25;;;;;;;11.02;4.50;;;;;;;26.86;32.99;99429.09;5069598;28;20043;-68
2022/06/25 00:58:54;;;;;;;10.38;5.18;;;;;;;27.02;33.06;99447.13;5053042;28;20044;-69
2022/06/25 01:01:20;;;;;;;8.05;4.22;;;;;;;26.89;33.10;99461.28;5069656;28;20036;-69
2022/06/25 01:03:47;;;;;;;11.27;4.57;;;;;;;26.87;33.00;99462.63;5069494;28;20367;-70
2022/06/25 01:06:13;;;;;;;9.77;4.40;;;;;;;26.78;33.56;99465.06;5052838;28;20047;-70
2022/06/25 01:08:44;;;;;;;19.52;5.55;;;;;;;26.98;33.33;99469.75;5052575;28;20051;-70
2022/06/25 01:11:11;;;;;;;11.95;4.68;;;;;;;26.81;33.46;99474.59;5050964;28;20045;-72
2022/06/25 01:13:36;;;;;;;12.50;5.43;;;;;;;26.79;33.44;99471.31;5017602;28;20060;-71
2022/06/25 01:16:03;;;;;;;8.05;4.95;;;;;;;26.73;33.45;99458.75;5017890;28;20071;-71
2022/06/25 01:18:29;;;;;;;17.67;5.18;;;;;;;26.77;33.63;99470.78;5017716;28;20054;-72
2022/06/25 01:20:55;;;;;;;10.48;4.80;;;;;;;26.79;33.36;99476.75;5070349;28;20127;-70
2022/06/25 01:23:21;;;;;;;12.38;4.75;;;;;;;26.78;33.65;99475.94;5054740;28;20044;-71
2022/06/25 01:25:48;;;;;;;12.98;4.82;;;;;;;26.77;33.64;99479.75;5072055;28;20499;-70
2022/06/25 01:28:14;;;;;;;9.98;4.70;;;;;;;26.65;33.47;99462.00;5056366;28;20036;-70
2022/06/25 01:30:40;;;;;;;15.02;5.20;;;;;;;26.74;33.39;99472.09;5073176;28;20048;-70
2022/06/25 01:33:09;;;;;;;10.57;4.85;;;;;;;26.96;33.25;99488.25;5056391;28;20045;-71
2022/06/25 01:35:35;;;;;;;14.02;5.38;;;;;;;26.84;33.55;99496.69;5056069;28;20044;-70
2022/06/25 01:38:02;;;;;;;9.10;5.13;;;;;;;26.91;33.48;99493.72;5023486;28;20125;-69
2022/06/25 01:40:31;;;;;;;8.80;4.68;;;;;;;26.87;33.43;99496.16;5073285;28;20078;-70
2022/06/25 01:43:01;;;;;;;10.68;4.40;;;;;;;26.66;33.81;99469.91;5073068;28;20051;-70
2022/06/25 01:45:32;;;;;;;9.85;4.65;;;;;;;26.92;33.63;99500.81;5055982;28;20080;-67
2022/06/25 01:47:59;;;;;;;9.45;4.78;;;;;;;26.90;33.61;99506.53;5072819;28;20048;-69
2022/06/25 01:50:26;;;;;;;10.00;4.57;;;;;;;26.98;33.46;99505.19;5055735;28;20040;-69
2022/06/25 01:52:52;;;;;;;14.63;4.53;;;;;;;26.91;33.48;99502.69;5038990;28;20044;-70
2022/06/25 01:55:19;;;;;;;11.15;4.97;;;;;;;26.95;33.47;99503.00;5072419;28;20123;-69
2022/06/25 01:57:48;;;;;;;14.30;5.47;;;;;;;27.05;33.53;99483.94;5072321;28;20488;-70
2022/06/25 02:00:17;;;;;;;14.23;4.72;;;;;;;27.08;33.50;99503.31;5072456;28;20058;-70
2022/06/25 02:02:50;;;;;;;11.40;4.63;;;;;;;26.99;33.46;99488.56;5039761;28;20067;-70
2022/06/25 02:05:17;;;;;;;10.18;5.55;;;;;;;27.18;33.49;99505.25;5055725;28;20045;-69
2022/06/25 02:07:44;;;;;;;7.68;5.20;;;;;;;27.15;33.64;99519.41;5072668;28;20040;-69
2022/06/25 02:10:13;;;;;;;13.55;5.28;;;;;;;27.00;33.19;99489.38;5056286;28;20408;-69
2022/06/25 02:12:39;;;;;;;10.48;4.53;;;;;;;27.22;33.25;99512.63;5072014;28;20045;-70
2022/06/25 02:15:06;;;;;;;15.20;4.53;;;;;;;27.34;33.25;99506.97;5072306;28;20055;-70
2022/06/25 02:17:32;;;;;;;8.15;4.80;;;;;;;27.24;33.21;99505.00;5055781;28;20048;-69
2022/06/25 02:19:58;;;;;;;11.15;5.70;;;;;;;27.31;33.35;99502.84;5072131;28;20063;-69
2022/06/25 02:22:23;;;;;;;11.35;5.03;;;;;;;27.37;33.28;99500.97;5071793;28;20427;-69
2022/06/25 02:24:52;;;;;;;9.52;4.53;;;;;;;27.44;33.26;99501.50;5072169;28;20484;-69
2022/06/25 02:27:17;;;;;;;7.95;5.03;;;;;;;27.48;32.89;99508.06;5071609;28;20079;-69
2022/06/25 02:29:43;;;;;;;7.78;5.05;;;;;;;27.39;33.10;99476.94;5071817;28;20076;-69
2022/06/25 02:32:09;;;;;;;11.40;5.18;;;;;;;27.56;33.11;99502.06;5072804;28;20538;-70
2022/06/25 02:34:35;;;;;;;8.68;4.72;;;;;;;27.58;33.06;99499.91;5022252;28;20095;-69
2022/06/25 02:37:01;;;;;;;10.82;5.00;;;;;;;27.62;32.84;99506.44;5039156;28;20060;-69
2022/06/25 02:39:28;;;;;;;11.07;5.00;;;;;;;27.68;32.84;99502.63;5022613;28;20075;-70
2022/06/25 02:41:55;;;;;;;12.40;5.38;;;;;;;27.67;33.08;99503.72;5055130;28;20097;-73
2022/06/25 02:44:22;;;;;;;14.63;5.28;;;;;;;27.78;32.79;99499.91;5022153;28;20044;-69
2022/06/25 02:46:54;;;;;;;10.68;4.80;;;;;;;27.84;32.69;99510.56;5023492;28;20492;-69
2022/06/25 02:49:24;;;;;;;10.35;4.45;;;;;;;27.85;32.58;99508.63;5054957;28;20033;-70
2022/06/25 02:51:50;;;;;;;11.98;5.32;;;;;;;27.88;32.66;99513.56;5022143;28;20043;-69
2022/06/25 02:54:15;;;;;;;13.55;5.25;;;;;;;27.87;32.71;99510.06;5055071;28;20387;-70
2022/06/25 02:59:32;;;;;;;12.02;5.25;;;;;;;27.92;32.73;99510.03;5072103;28;20195;-71
2022/06/25 03:02:01;;;;;;;10.57;4.88;;;;;;;28.02;32.63;99517.41;5039416;28;20040;-70
2022/06/25 03:04:31;;;;;;;;;;;;;;;28.38;32.11;99524.47;5056211;28;20379;-70
2022/06/25 03:06:57;;;;;;;9.15;4.60;;;;;;;28.13;32.45;99527.22;5054641;28;19920;-70
2022/06/25 03:09:23;;;;;;;10.80;4.90;;;;;;;28.26;32.10;99539.50;5021665;28;20496;-70
2022/06/25 03:11:49;;;;;;;11.43;5.30;;;;;;;28.27;32.47;99533.78;5054341;28;20060;-70
2022/06/25 03:14:16;;;;;;;12.52;5.22;;;;;;;28.37;32.50;99539.22;5070576;28;20059;-70
2022/06/25 03:16:43;;;;;;;12.60;5.07;;;;;;;28.31;32.24;99540.31;5038163;28;20048;-69
2022/06/25 03:19:19;;;;;;;9.18;4.75;;;;;;;28.44;32.56;99522.53;5070834;28;20130;-69
2022/06/25 03:22:09;;;;;;;13.57;5.00;;;;;;;28.45;32.46;99544.13;5057386;28;20036;-69
2022/06/25 03:24:35;;;;;;;12.48;4.95;;;;;;;28.58;32.19;99546.31;5071091;28;20044;-69
2022/06/25 03:27:01;;;;;;;8.07;4.85;;;;;;;28.62;32.53;99550.13;5070478;28;20401;-69
2022/06/25 03:29:30;;;;;;;10.35;4.60;;;;;;;28.56;32.03;99523.06;5054143;28;20040;-68
2022/06/25 03:31:56;;;;;;;9.32;4.43;;;;;;;28.73;32.55;99550.91;5020824;28;20408;-69
2022/06/25 03:34:49;;;;;;;11.45;4.18;;;;;;;28.78;32.21;99553.63;5070311;28;20084;-69
2022/06/25 03:37:16;;;;;;;11.55;4.75;;;;;;;28.86;32.02;99553.06;5053971;28;20393;-69
2022/06/25 03:39:42;;;;;;;13.55;4.72;;;;;;;28.86;32.14;99553.06;5070280;28;20067;-70
2022/06/25 03:42:08;;;;;;;9.73;4.40;;;;;;;28.95;31.59;99546.75;5053190;28;20072;-71
2022/06/25 03:45:03;;;;;;;12.07;4.55;;;;;;;29.06;31.41;99551.09;5046544;28;20048;-69
2022/06/25 03:47:32;;;;;;;8.70;3.60;;;;;;;29.09;31.66;99564.19;5069946;28;20083;-69
2022/06/25 03:50:01;;;;;;;18.88;4.43;;;;;;;29.03;31.01;99548.09;5053851;28;20040;-70
2022/06/25 03:52:29;;;;;;;9.75;4.00;;;;;;;29.21;31.14;99567.47;5053691;28;20097;-69
2022/06/25 03:54:55;;;;;;;10.18;4.20;;;;;;;29.29;30.87;99569.59;5036958;28;20044;-69
2022/06/25 03:57:21;;;;;;;10.80;4.65;;;;;;;29.37;30.83;99570.91;5036515;28;20129;-68
2022/06/25 04:00:10;;;;;;;11.30;4.18;;;;;;;29.47;30.67;99577.19;5061804;28;20040;-72
2022/06/25 04:02:44;;;;;;;8.48;4.70;;;;;;;29.48;30.60;99576.06;5038698;28;20090;-70
2022/06/25 04:05:28;;;;;;;20.65;7.07;;;;;;;29.58;30.52;99580.66;5058276;28;20131;-69
2022/06/25 04:07:58;;;;;;;13.45;5.03;;;;;;;29.63;30.79;99575.16;5021379;28;20416;-70
2022/06/25 04:10:25;;;;;;;12.27;5.82;;;;;;;29.74;30.34;99586.91;5052979;28;20048;-69
2022/06/25 04:12:52;;;;;;;15.25;8.20;;;;;;;29.72;30.57;99583.63;5053181;28;20052;-69
2022/06/25 04:15:18;;;;;;;12.00;6.18;;;;;;;29.74;30.39;99584.97;5052850;28;20047;-70
2022/06/25 04:17:43;;;;;;;19.98;8.40;;;;;;;29.78;30.30;99587.94;5053005;28;21413;-69
2022/06/25 04:20:10;;;;;;;12.35;5.63;;;;;;;29.84;29.95;99582.16;5037202;28;20040;-69
2022/06/25 04:22:37;;;;;;;10.73;4.60;;;;;;;29.72;29.74;99559.81;5053126;28;20110;-69
2022/06/25 04:25:04;;;;;;;11.98;5.28;;;;;;;30.00;29.69;99582.88;5069468;28;20051;-71
2022/06/25 04:30:15;;;;;;;10.73;5.63;;;;;;;30.08;29.52;99584.97;5055174;28;20500;-69
2022/06/25 04:32:45;;;;;;;6.78;4.22;;;;;;;30.02;29.51;99576.00;5036492;28;20041;-69
2022/06/25 04:35:19;;;;;;;12.77;4.00;;;;;;;30.20;29.46;99575.31;5053641;28;20181;-69
2022/06/25 04:37:47;;;;;;;10.15;4.30;;;;;;;30.46;29.01;99590.44;5037101;28;20044;-69
2022/06/25 04:40:15;;;;;;;12.05;4.20;;;;;;;30.58;29.05;99601.03;5069249;28;20049;-69
2022/06/25 04:42:45;;;;;;;15.32;3.85;;;;;;;30.65;28.69;99591.34;5037141;28;20044;-71
2022/06/25 04:45:11;;;;;;;16.17;4.80;;;;;;;30.64;28.44;99600.69;5019990;28;20048;-69
2022/06/25 04:47:48;;;;;;;9.65;4.10;;;;;;;30.66;28.07;99603.16;5039419;28;20129;-70
2022/06/25 04:50:36;;;;;;;10.75;4.50;;;;;;;30.78;28.22;99603.59;5055613;28;20451;-69
2022/06/25 04:53:02;;;;;;;13.38;4.30;;;;;;;30.80;28.46;99602.19;5052788;28;20049;-70
2022/06/25 04:55:28;;;;;;;11.73;3.88;;;;;;;30.87;28.10;99601.84;5018620;28;20036;-70
2022/06/25 04:57:54;;;;;;;13.25;3.85;;;;;;;30.90;27.84;99601.25;5019473;28;20044;-70
2022/06/25 05:00:38;;;;;;;9.70;3.85;;;;;;;30.96;27.94;99600.09;5069213;28;20052;-71
2022/06/25 05:03:04;;;;;;;6.95;3.95;;;;;;;30.99;28.32;99594.84;5036019;28;20412;-71
2022/06/25 05:05:30;;;;;;;8.23;3.63;;;;;;;31.08;27.70;99597.75;5019636;28;20136;-71
2022/06/25 05:07:56;;;;;;;14.07;3.90;;;;;;;31.20;27.40;99608.34;5052384;28;20506;-72
2022/06/25 05:10:22;;;;;;;7.82;3.75;;;;;;;31.36;27.22;99618.03;5052896;28;20045;-70
2022/06/25 05:15:33;;;;;;;9.23;4.30;;;;;;;31.35;27.25;99614.47;5055036;28;20044;-70
2022/06/25 05:17:59;;;;;;;12.82;3.90;;;;;;;31.42;26.84;99614.09;5052413;28;20060;-70
2022/06/25 05:20:25;;;;;;;8.45;3.97;;;;;;;31.47;26.88;99622.28;5052254;28;20043;-69
2022/06/25 05:22:51;;;;;;;8.77;4.10;;;;;;;31.52;26.94;99624.97;5035864;28;20048;-69
2022/06/25 05:25:18;;;;;;;9.13;4.45;;;;;;;31.56;26.76;99624.09;5036036;28;20520;-72
2022/06/25 05:27:45;;;;;;;12.90;4.28;;;;;;;31.68;26.48;99620.88;5069259;28;20040;-73
2022/06/25 05:30:11;;;;;;;10.50;4.22;;;;;;;31.74;26.56;99631.50;5069720;28;20049;-69
2022/06/25 05:32:37;;;;;;;8.95;4.30;;;;;;;31.78;26.26;99627.06;5068818;28;20502;-69
2022/06/25 05:35:05;;;;;;;7.22;4.30;;;;;;;31.93;26.20;99635.13;5052374;28;20045;-70
2022/06/25 05:37:33;;;;;;;7.50;4.28;;;;;;;31.89;26.05;99625.81;5052893;28;20037;-70
2022/06/25 05:39:59;;;;;;;9.57;4.93;;;;;;;31.88;26.11;99620.63;5070318;28;20050;-70
2022/06/25 05:42:25;;;;;;;12.00;4.90;;;;;;;31.88;25.80;99613.22;5052211;28;20049;-69
2022/06/25 05:44:50;;;;;;;16.92;6.15;;;;;;;31.88;25.78;99609.63;5019090;28;20500;-69
2022/06/25 05:47:16;;;;;;;8.63;5.28;;;;;;;32.07;25.23;99632.44;5051855;28;20040;-71
2022/06/25 05:49:42;;;;;;;7.57;4.60;;;;;;;32.17;25.10;99633.09;5068616;28;20040;-69
2022/06/25 05:52:08;;;;;;;6.88;4.40;;;;;;;32.22;25.45;99623.94;5018661;28;20043;-69
2022/06/25 05:54:34;;;;;;;9.23;4.68;;;;;;;32.21;25.16;99634.09;5051430;28;20496;-69
2022/06/25 05:56:59;;;;;;;10.75;4.43;;;;;;;32.26;25.25;99647.78;5051530;28;20044;-70
2022/06/25 05:59:27;;;;;;;10.63;4.50;;;;;;;32.50;24.98;99639.44;5034972;28;20048;-70
2022/06/25 06:01:53;;;;;;;7.38;4.32;;;;;;;32.45;25.05;99628.53;5051465;28;20043;-70
2022/06/25 06:04:19;;;;;;;8.20;4.60;;;;;;;32.56;24.62;99641.00;5068273;28;20041;-70
2022/06/25 06:06:45;;;;;;;7.75;4.20;;;;;;;32.67;24.26;99629.50;5054349;28;20051;-70
2022/06/25 06:09:10;;;;;;;9.25;4.60;;;;;;;32.81;24.69;99646.06;5054899;28;20040;-70
2022/06/25 06:11:36;;;;;;;7.78;4.32;;;;;;;32.87;24.62;99636.63;5040495;28;20554;-70
2022/06/25 06:14:02;;;;;;;7.28;4.03;;;;;;;32.93;23.86;99640.06;5058488;28;20036;-72
2022/06/25 06:16:28;;;;;;;8.77;3.95;;;;;;;32.98;23.91;99637.22;5058534;28;20043;-71
2022/06/25 06:18:53;;;;;;;11.23;4.22;;;;;;;33.02;23.28;99643.75;5058074;28;20040;-70
2022/06/25 06:21:19;;;;;;;5.68;4.35;;;;;;;33.20;23.77;99640.91;5058177;28;20052;-70
2022/06/25 06:23:45;;;;;;;8.40;4.35;;;;;;;33.25;23.17;99637.22;5058481;28;20051;-70
2022/06/25 06:26:10;;;;;;;8.48;4.72;;;;;;;33.35;23.72;99645.31;5057973;28;20181;-70
2022/06/25 06:28:36;;;;;;;12.55;4.68;;;;;;;33.40;23.17;99640.53;5041295;28;20036;-70
2022/06/25 06:31:02;;;;;;;14.23;4.43;;;;;;;33.45;23.26;99645.13;5058051;28;20546;-69
2022/06/25 06:33:28;;;;;;;11.73;4.28;;;;;;;33.47;22.70;99640.13;5074527;28;20132;-69
2022/06/25 06:35:53;;;;;;;7.53;4.55;;;;;;;33.64;22.69;99641.13;5041172;28;20048;-74
2022/06/25 06:38:19;;;;;;;11.40;4.60;;;;;;;33.73;22.79;99641.19;5049772;28;20134;-72
2022/06/25 06:40:45;;;;;;;10.80;4.47;;;;;;;33.85;22.42;99639.53;5041325;28;20050;-76
2022/06/25 06:43:11;;;;;;;11.60;4.32;;;;;;;33.98;22.40;99632.41;5092692;28;20403;-76
2022/06/25 06:45:36;;;;;;;7.55;3.95;;;;;;;34.14;22.03;99633.66;5074773;28;20123;-75
2022/06/25 06:48:03;;;;;;;8.50;4.68;;;;;;;34.24;21.94;99638.94;5057936;28;20066;-75
2022/06/25 06:50:28;;;;;;;12.43;4.38;;;;;;;34.32;21.98;99629.91;5058903;28;20075;-76
2022/06/25 06:52:54;;;;;;;9.80;3.88;;;;;;;34.62;20.84;99631.91;5025111;28;20596;-76
2022/06/25 06:55:20;;;;;;;10.85;4.40;;;;;;;34.89;20.93;99634.53;5058442;28;20044;-76
2022/06/25 06:57:46;;;;;;;8.23;3.75;;;;;;;35.13;20.40;99637.72;5041692;28;20526;-75
2022/06/25 07:00:12;;;;;;;10.50;4.53;;;;;;;35.52;20.10;99643.22;5058647;28;20147;-74
2022/06/25 07:02:37;;;;;;;10.38;4.40;;;;;;;35.90;19.51;99635.22;5058306;28;20526;-76
2022/06/25 07:05:04;;;;;;;8.32;4.00;;;;;;;36.05;19.74;99648.53;5058051;28;20044;-76
2022/06/25 07:07:32;;;;;;;15.82;4.32;;;;;;;36.17;19.41;99643.16;5057822;28;20507;-75
2022/06/25 07:09:58;;;;;;;9.40;3.85;;;;;;;36.35;18.97;99638.47;5074269;28;20040;-74
2022/06/25 07:12:23;;;;;;;8.23;4.15;;;;;;;36.52;18.86;99642.00;5047827;28;20568;-73
2022/06/25 07:14:50;;;;;;;12.02;4.85;;;;;;;36.71;18.43;99638.88;5058472;28;20414;-77
2022/06/25 07:17:17;;;;;;;6.00;3.85;;;;;;;36.85;18.46;99643.13;5044665;28;20089;-75
2022/06/25 07:19:45;;;;;;;9.38;4.00;;;;;;;37.25;17.62;99643.63;5039183;28;20135;-76
2022/06/25 07:22:13;;;;;;;8.98;4.28;;;;;;;37.48;17.21;99624.75;5073671;28;20047;-75
2022/06/25 07:24:40;;;;;;;7.57;4.13;;;;;;;37.68;17.59;99627.59;5070680;28;20101;-73
2022/06/25 07:27:06;;;;;;;13.27;3.95;;;;;;;37.87;16.89;99633.50;5023820;28;20044;-75
2022/06/25 07:29:34;;;;;;;8.55;4.05;;;;;;;38.03;17.00;99634.50;5024395;28;20051;-78
2022/06/25 07:32:00;;;;;;;10.65;4.22;;;;;;;38.56;16.46;99637.34;5040602;28;20047;-74
2022/06/25 07:34:28;;;;;;;10.10;3.80;;;;;;;39.08;15.65;99629.25;5057645;28;20108;-75
2022/06/25 07:36:54;;;;;;;6.88;3.88;;;;;;;39.57;15.24;99617.00;5057254;28;20101;-76
2022/06/25 07:39:21;;;;;;;11.50;4.00;;;;;;;40.42;14.49;99631.50;5057204;28;20044;-78
2022/06/25 07:41:48;;;;;;;7.93;3.40;;;;;;;41.21;13.59;99628.50;5024106;28;20036;-74
2022/06/25 07:44:17;;;;;;;10.00;3.22;;;;;;;42.50;12.68;99626.25;5091912;28;20069;-75
2022/06/25 07:46:45;;;;;;;6.78;3.30;;;;;;;43.82;11.60;99626.13;5069491;28;20048;-73
2022/06/25 07:49:11;;;;;;;8.27;3.10;;;;;;;45.40;10.39;99630.75;5056885;28;20055;-74
2022/06/25 07:54:21;;;;;;;6.18;3.05;;;;;;;48.88;8.19;99628.97;5080674;28;20032;-76
2022/06/25 07:56:46;;;;;;;8.10;3.50;;;;;;;50.66;7.11;99630.28;5088678;28;20553;-74
2022/06/25 07:59:14;;;;;;;6.75;3.50;;;;;;;52.05;6.09;99625.47;5065796;28;20044;-74
2022/06/25 08:01:40;;;;;;;5.20;2.47;;;;;;;53.01;5.51;99625.75;5092595;28;20230;-75
2022/06/25 08:04:06;;;;;;;6.03;2.63;;;;;;;53.69;5.25;99623.56;5046176;28;20134;-80
2022/06/25 08:06:34;;;;;;;6.53;2.75;;;;;;;54.14;4.82;99626.31;5056587;28;20044;-76
2022/06/25 08:09:01;;;;;;;9.45;2.97;;;;;;;53.74;5.05;99619.38;5056136;28;20491;-79
2022/06/25 08:11:27;;;;;;;10.63;3.20;;;;;;;54.02;5.02;99624.25;5080177;28;20044;-78
2022/06/25 08:13:53;;;;;;;6.75;2.70;;;;;;;54.62;4.81;99626.09;5080199;28;20044;-77
2022/06/25 08:16:21;;;;;;;6.70;2.30;;;;;;;55.19;4.48;99617.31;5055404;28;20107;-79
2022/06/25 08:18:47;;;;;;;11.03;4.43;;;;;;;56.07;3.86;99614.16;5004910;28;20514;-79
2022/06/25 08:21:13;;;;;;;10.77;3.05;;;;;;;56.44;3.43;99604.53;5021740;28;20125;-78
2022/06/25 08:23:39;;;;;;;12.00;3.45;;;;;;;56.86;3.69;99604.84;5054503;28;20063;-77
2022/06/25 08:26:05;;;;;;;8.15;2.90;;;;;;;56.72;3.19;99600.53;5054418;28;20043;-77
2022/06/25 08:28:31;;;;;;;11.98;2.95;;;;;;;56.46;3.29;99604.84;5055011;28;20036;-77
2022/06/25 08:30:57;;;;;;;6.60;2.60;;;;;;;56.81;3.17;99582.66;5071855;28;20058;-77
2022/06/25 08:33:23;;;;;;;9.93;3.08;;;;;;;57.24;3.20;99594.66;5072898;28;20392;-79
2022/06/25 08:35:49;;;;;;;8.20;2.63;;;;;;;57.59;3.34;99595.19;5073475;28;20051;-77
2022/06/25 08:38:16;;;;;;;9.02;2.92;;;;;;;57.57;2.99;99603.44;5040032;28;20123;-77
2022/06/25 08:40:42;;;;;;;4.30;2.13;;;;;;;57.99;2.68;99592.94;5040310;28;20109;-77
2022/06/25 08:43:08;;;;;;;11.35;3.22;;;;;;;58.22;2.81;99588.59;5039248;28;20040;-77
2022/06/25 08:45:34;;;;;;;7.60;2.75;;;;;;;58.30;2.87;99584.09;5023001;28;20487;-78
2022/06/25 08:48:00;;;;;;;6.25;2.92;;;;;;;58.02;2.91;99591.97;5023448;28;20486;-77
2022/06/25 08:50:26;;;;;;;5.03;2.50;;;;;;;58.26;2.81;99592.84;5056171;28;20054;-77
2022/06/25 08:52:54;;;;;;;10.45;2.40;;;;;;;59.18;2.28;99594.03;5039782;28;20448;-77
2022/06/25 08:55:33;;;;;;;4.53;2.47;;;;;;;59.71;2.31;99574.81;5073144;28;20040;-77
2022/06/25 08:58:00;;;;;;;8.77;2.55;;;;;;;60.04;1.87;99581.94;5056781;28;20047;-77
2022/06/25 09:00:27;;;;;;;10.50;2.53;;;;;;;59.98;2.02;99583.94;5073302;28;20518;-77
2022/06/25 09:02:53;;;;;;;9.13;2.25;;;;;;;60.27;1.60;99583.94;5023561;28;20043;-78
2022/06/25 09:05:30;;;;;;;4.72;2.05;;;;;;;60.40;1.42;99575.03;5040093;28;20484;-77
2022/06/25 09:07:57;;;;;;;7.28;2.22;;;;;;;60.47;1.41;99569.66;5056261;28;20127;-78
2022/06/25 09:10:25;;;;;;;5.40;2.10;;;;;;;60.54;1.26;99571.31;5056225;28;20452;-78
2022/06/25 09:12:56;;;;;;;7.68;2.20;;;;;;;60.57;1.51;99567.44;5052696;28;20052;-78
2022/06/25 09:15:24;;;;;;;10.15;2.42;;;;;;;61.11;1.49;99571.63;5070801;28;20118;-77
2022/06/25 09:17:52;;;;;;;7.80;2.00;;;;;;;61.37;1.31;99564.66;5052937;28;20041;-77
2022/06/25 09:20:19;;;;;;;7.40;2.47;;;;;;;59.91;2.00;99567.13;5052583;28;20037;-77
2022/06/25 09:23:00;;;;;;;5.22;2.30;;;;;;;57.31;2.97;99562.13;5052669;28;20044;-77
2022/06/25 09:25:27;;;;;;;7.10;2.40;;;;;;;57.24;3.17;99553.88;5069365;28;20194;-82
2022/06/25 09:27:53;;;;;;;7.10;2.53;;;;;;;58.00;2.75;99548.72;5052856;28;20541;-76
2022/06/25 09:30:22;;;;;;;9.93;2.63;;;;;;;58.74;2.39;99559.44;5052615;28;20094;-76
2022/06/25 09:32:48;;;;;;;5.60;2.53;;;;;;;59.33;2.27;99566.22;5036372;28;20052;-75
2022/06/25 09:35:28;;;;;;;5.10;2.20;;;;;;;58.94;2.22;99528.91;5052318;28;20401;-77
2022/06/25 09:38:10;;;;;;;9.13;2.67;;;;;;;58.72;2.25;99557.06;5019622;28;20044;-77
2022/06/25 09:40:37;;;;;;;5.15;2.20;;;;;;;59.06;2.62;99559.41;5053402;28;20113;-77
2022/06/25 09:43:20;;;;;;;7.90;2.30;;;;;;;59.68;2.12;99567.19;5056545;28;20381;-77
2022/06/25 09:45:52;;;;;;;12.30;3.00;;;;;;;59.10;2.19;99554.25;5056438;28;20386;-77
2022/06/25 09:48:23;;;;;;;6.57;2.03;;;;;;;56.30;3.23;99525.19;5056518;28;21073;-76
2022/06/25 09:51:10;;;;;;;8.00;2.50;;;;;;;55.94;3.43;99551.47;5073115;28;20036;-78
2022/06/25 09:53:49;;;;;;;8.95;2.13;;;;;;;56.21;3.33;99545.09;5056982;28;20045;-75
2022/06/25 09:56:17;;;;;;;7.30;2.65;;;;;;;56.83;2.66;99546.63;5080604;28;20051;-77
2022/06/25 09:58:43;;;;;;;;;;;;;;;57.66;2.76;99543.38;5081462;28;20044;-76
2022/06/25 10:01:10;;;;;;;12.75;2.53;;;;;;;58.43;2.36;99548.28;5060344;28;19985;-76
2022/06/25 10:03:37;;;;;;;9.20;2.13;;;;;;;59.13;2.15;99541.06;5076417;28;20067;-77
2022/06/25 10:06:02;;;;;;;7.60;1.80;;;;;;;59.31;2.24;99548.72;5059520;28;20039;-76
2022/06/25 10:08:29;;;;;;;5.47;1.98;;;;;;;59.36;2.08;99550.91;5057818;28;20085;-77
2022/06/25 10:10:55;;;;;;;6.55;1.90;;;;;;;59.59;1.66;99522.19;5040960;28;20097;-76
2022/06/25 10:13:22;;;;;;;8.88;2.50;;;;;;;60.24;1.40;99544.75;5057324;28;20064;-76
2022/06/25 10:15:49;;;;;;;8.85;1.95;;;;;;;59.73;2.04;99535.72;5090749;28;20045;-76
2022/06/25 10:18:18;;;;;;;5.70;2.20;;;;;;;59.30;2.06;99547.91;5040206;28;20047;-76
2022/06/25 10:20:46;;;;;;;6.57;2.00;;;;;;;59.60;1.80;99551.66;5072630;28;20053;-76
2022/06/25 10:23:13;;;;;;;5.32;2.10;;;;;;;59.85;1.93;99546.16;5022705;28;20044;-76
2022/06/25 10:25:39;;;;;;;6.60;2.30;;;;;;;58.13;2.32;99539.97;5072371;28;20040;-77
2022/06/25 10:28:05;;;;;;;5.90;2.00;;;;;;;57.11;2.70;99538.91;5072249;28;20067;-76
2022/06/25 10:30:43;;;;;;;5.22;2.13;;;;;;;57.64;2.54;99531.63;5073190;28;20047;-77
2022/06/25 10:33:09;;;;;;;6.38;1.80;;;;;;;58.56;2.25;99533.75;5071995;28;20360;-77
2022/06/25 10:35:37;;;;;;;6.80;1.88;;;;;;;59.60;1.71;99535.25;5038891;28;20399;-79
2022/06/25 10:38:09;;;;;;;9.30;2.63;;;;;;;60.06;1.55;99530.59;5071858;28;20076;-78
2022/06/25 10:43:53;;;;;;;5.82;2.13;;;;;;;55.56;3.33;99507.31;5036085;28;20129;-76
2022/06/25 10:46:19;;;;;;;8.50;2.25;;;;;;;54.60;3.84;99509.88;5055247;28;20496;-77
2022/06/25 10:48:56;;;;;;;6.13;2.22;;;;;;;54.28;4.22;99515.00;5071683;28;20070;-76
2022/06/25 10:51:32;;;;;;;7.53;2.20;;;;;;;54.82;3.87;99512.78;5054898;28;20102;-76
2022/06/25 10:54:00;;;;;;;4.88;2.17;;;;;;;55.46;3.79;99497.91;5071952;28;20107;-77
2022/06/25 10:56:31;;;;;;;6.40;2.23;;;;;;;56.23;3.54;99514.88;5073209;28;20033;-77
2022/06/25 10:58:58;;;;;;;4.63;1.60;;;;;;;56.33;3.40;99516.47;5038690;28;20058;-77
2022/06/25 11:01:29;;;;;;;7.47;2.15;;;;;;;55.60;3.71;99516.50;5022097;28;20083;-77
2022/06/25 11:03:58;;;;;;;4.78;1.65;;;;;;;54.85;4.06;99511.91;5055416;28;20044;-76
2022/06/25 11:06:35;;;;;;;4.35;1.83;;;;;;;53.90;4.39;99505.63;5054869;28;20097;-75
2022/06/25 11:09:16;;;;;;;2.10;1.55;;;;;;;52.94;4.72;99501.84;5071452;28;20496;-76
2022/06/25 11:11:46;;;;;;;4.90;2.13;;;;;;;51.82;5.56;99482.59;5041337;28;20067;-76
2022/06/25 11:14:17;;;;;;;5.53;2.42;;;;;;;50.41;5.95;99490.09;5041438;28;20047;-75
2022/06/25 11:16:43;;;;;;;4.32;2.15;;;;;;;48.87;7.27;99495.56;5074662;28;20055;-75
2022/06/25 11:19:09;;;;;;;4.35;2.22;;;;;;;47.74;8.08;99491.06;5057844;28;20412;-76
2022/06/25 11:21:40;;;;;;;8.43;2.47;;;;;;;46.95;8.58;99483.25;5024690;28;20051;-76
2022/06/25 11:24:26;;;;;;;6.72;1.98;;;;;;;46.35;8.82;99493.63;5041319;28;20058;-76
2022/06/25 11:29:47;;;;;;;5.60;2.00;;;;;;;45.56;9.30;99488.97;5060030;28;20488;-76
2022/06/25 11:32:24;;;;;;;3.97;2.50;;;;;;;44.81;10.00;99491.63;5057950;28;20040;-76
2022/06/25 11:34:58;;;;;;;6.43;2.50;;;;;;;44.02;10.25;99491.25;5057523;28;20455;-76
2022/06/25 11:37:24;;;;;;;7.88;2.47;;;;;;;43.31;11.19;99496.28;5024590;28;20075;-75
2022/06/25 11:39:50;;;;;;;3.42;2.45;;;;;;;42.82;11.33;99491.56;5074504;28;20435;-76
2022/06/25 11:42:17;;;;;;;7.68;2.30;;;;;;;42.31;11.54;99495.84;5041028;28;20044;-76
2022/06/25 11:44:45;;;;;;;7.57;2.25;;;;;;;42.15;11.74;99492.31;5024349;28;20054;-76
2022/06/25 11:47:29;;;;;;;5.22;2.42;;;;;;;42.05;12.28;99490.13;5024531;28;20416;-76
2022/06/25 11:49:55;;;;;;;5.05;2.17;;;;;;;41.92;12.37;99476.72;5057612;28;20043;-76
2022/06/25 11:52:26;;;;;;;5.57;2.00;;;;;;;41.99;11.96;99488.00;5041181;28;20044;-75
2022/06/25 11:54:52;;;;;;;6.82;2.17;;;;;;;41.92;12.17;99491.47;5057804;28;20040;-75
2022/06/25 11:57:28;;;;;;;10.82;2.15;;;;;;;41.91;12.46;99480.66;5073742;28;20039;-76
2022/06/25 11:59:56;;;;;;;4.05;2.13;;;;;;;41.67;12.75;99490.94;5057252;28;20592;-76
2022/06/25 12:02:22;;;;;;;6.22;2.40;;;;;;;41.45;12.87;99486.06;5040522;28;20194;-76